sensor_id;sensor_type;location;lat;lon;timestamp;P1;durP1;ratioP1;P2;durP2;ratioP2
65871;SDS011;52653;50.080;21.992;2023-07-13T00:00:38;13.80;;;11.50;;
65871;SDS011;52653;50.080;21.992;2023-07-13T00:03:44;14.60;;;12.60;;
65871;SDS011;52653;50.080;21.992;2023-07-13T00:06:30;13.90;;;12.50;;
65871;SDS011;52653;50.080;21.992;2023-07-13T00:09:25;14.60;;;12.30;;
65871;SDS011;52653;50.080;21.992;2023-07-13T00:12:26;13.60;;;12.10;;
65871;SDS011;52653;50.080;21.992;2023-07-13T00:15:20;14.30;;;12.50;;
65871;SDS011;52653;50.080;21.992;2023-07-13T00:18:16;13.90;;;12.50;;
65871;SDS011;52653;50.080;21.992;2023-07-13T00:21:09;14.60;;;13.10;;
65871;SDS011;52653;50.080;21.992;2023-07-13T00:24:03;14.80;;;13.30;;
65871;SDS011;52653;50.080;21.992;2023-07-13T00:26:50;14.90;;;13.40;;
65871;SDS011;52653;50.080;21.992;2023-07-13T00:29:43;14.00;;;12.40;;
65871;SDS011;52653;50.080;21.992;2023-07-13T00:32:37;14.90;;;12.50;;
65871;SDS011;52653;50.080;21.992;2023-07-13T00:35:31;15.80;;;13.20;;
65871;SDS011;52653;50.080;21.992;2023-07-13T00:38:28;15.20;;;13.30;;
65871;SDS011;52653;50.080;21.992;2023-07-13T00:41:21;14.90;;;13.30;;
65871;SDS011;52653;50.080;21.992;2023-07-13T00:44:17;15.80;;;13.60;;
65871;SDS011;52653;50.080;21.992;2023-07-13T00:47:00;16.20;;;14.00;;
65871;SDS011;52653;50.080;21.992;2023-07-13T00:49:53;14.90;;;13.40;;
65871;SDS011;52653;50.080;21.992;2023-07-13T00:52:47;14.50;;;13.00;;
65871;SDS011;52653;50.080;21.992;2023-07-13T00:55:44;15.10;;;13.50;;
65871;SDS011;52653;50.080;21.992;2023-07-13T00:58:38;15.00;;;13.30;;
65871;SDS011;52653;50.080;21.992;2023-07-13T01:01:31;15.50;;;12.90;;
65871;SDS011;52653;50.080;21.992;2023-07-13T01:04:25;15.10;;;13.00;;
65871;SDS011;52653;50.080;21.992;2023-07-13T01:07:20;15.70;;;13.70;;
65871;SDS011;52653;50.080;21.992;2023-07-13T01:10:13;16.00;;;12.80;;
65871;SDS011;52653;50.080;21.992;2023-07-13T01:13:08;16.20;;;13.70;;
65871;SDS011;52653;50.080;21.992;2023-07-13T01:15:55;15.40;;;13.70;;
65871;SDS011;52653;50.080;21.992;2023-07-13T01:18:46;15.50;;;13.90;;
65871;SDS011;52653;50.080;21.992;2023-07-13T01:21:39;15.00;;;13.50;;
65871;SDS011;52653;50.080;21.992;2023-07-13T01:24:25;16.40;;;14.70;;
65871;SDS011;52653;50.080;21.992;2023-07-13T01:27:20;17.30;;;15.50;;
65871;SDS011;52653;50.080;21.992;2023-07-13T01:30:15;18.90;;;16.00;;
65871;SDS011;52653;50.080;21.992;2023-07-13T01:33:00;18.20;;;16.10;;
65871;SDS011;52653;50.080;21.992;2023-07-13T01:35:53;17.00;;;15.20;;
65871;SDS011;52653;50.080;21.992;2023-07-13T01:38:47;18.10;;;15.80;;
65871;SDS011;52653;50.080;21.992;2023-07-13T01:41:40;17.80;;;15.90;;
65871;SDS011;52653;50.080;21.992;2023-07-13T01:44:31;16.30;;;14.70;;
65871;SDS011;52653;50.080;21.992;2023-07-13T01:47:25;17.10;;;15.30;;
65871;SDS011;52653;50.080;21.992;2023-07-13T01:50:19;16.00;;;14.30;;
65871;SDS011;52653;50.080;21.992;2023-07-13T01:53:14;16.50;;;14.80;;
65871;SDS011;52653;50.080;21.992;2023-07-13T01:56:07;17.10;;;15.30;;
65871;SDS011;52653;50.080;21.992;2023-07-13T01:59:01;16.80;;;15.00;;
65871;SDS011;52653;50.080;21.992;2023-07-13T02:01:51;17.30;;;15.50;;
65871;SDS011;52653;50.080;21.992;2023-07-13T02:04:37;17.20;;;15.00;;
65871;SDS011;52653;50.080;21.992;2023-07-13T02:07:31;15.10;;;13.70;;
65871;SDS011;52653;50.080;21.992;2023-07-13T02:10:22;16.10;;;14.50;;
65871;SDS011;52653;50.080;21.992;2023-07-13T02:13:15;16.70;;;14.60;;
65871;SDS011;52653;50.080;21.992;2023-07-13T02:16:08;15.50;;;13.60;;
65871;SDS011;52653;50.080;21.992;2023-07-13T02:19:01;16.70;;;14.90;;
65871;SDS011;52653;50.080;21.992;2023-07-13T02:21:56;16.50;;;14.40;;
65871;SDS011;52653;50.080;21.992;2023-07-13T02:24:49;16.90;;;13.70;;
65871;SDS011;52653;50.080;21.992;2023-07-13T02:27:42;15.80;;;14.10;;
65871;SDS011;52653;50.080;21.992;2023-07-13T02:30:35;16.10;;;13.60;;
65871;SDS011;52653;50.080;21.992;2023-07-13T02:33:29;16.10;;;14.30;;
65871;SDS011;52653;50.080;21.992;2023-07-13T02:36:15;15.00;;;13.00;;
65871;SDS011;52653;50.080;21.992;2023-07-13T02:39:08;17.40;;;14.60;;
65871;SDS011;52653;50.080;21.992;2023-07-13T02:41:57;15.50;;;13.90;;
65871;SDS011;52653;50.080;21.992;2023-07-13T02:44:50;16.10;;;14.10;;
65871;SDS011;52653;50.080;21.992;2023-07-13T02:47:43;15.80;;;14.20;;
65871;SDS011;52653;50.080;21.992;2023-07-13T02:50:26;16.20;;;14.30;;
65871;SDS011;52653;50.080;21.992;2023-07-13T02:53:20;14.30;;;12.90;;
65871;SDS011;52653;50.080;21.992;2023-07-13T02:56:13;16.50;;;13.80;;
65871;SDS011;52653;50.080;21.992;2023-07-13T02:58:52;15.80;;;13.90;;
65871;SDS011;52653;50.080;21.992;2023-07-13T03:01:45;16.00;;;13.20;;
65871;SDS011;52653;50.080;21.992;2023-07-13T03:04:38;17.50;;;14.40;;
65871;SDS011;52653;50.080;21.992;2023-07-13T03:07:31;15.30;;;13.70;;
65871;SDS011;52653;50.080;21.992;2023-07-13T03:10:17;15.70;;;14.00;;
65871;SDS011;52653;50.080;21.992;2023-07-13T03:13:04;16.70;;;14.50;;
65871;SDS011;52653;50.080;21.992;2023-07-13T03:15:49;14.60;;;12.80;;
65871;SDS011;52653;50.080;21.992;2023-07-13T03:18:36;14.00;;;12.50;;
65871;SDS011;52653;50.080;21.992;2023-07-13T03:21:29;13.50;;;12.00;;
65871;SDS011;52653;50.080;21.992;2023-07-13T03:24:22;13.60;;;11.20;;
65871;SDS011;52653;50.080;21.992;2023-07-13T03:27:07;15.00;;;11.40;;
65871;SDS011;52653;50.080;21.992;2023-07-13T03:29:47;11.40;;;10.20;;
65871;SDS011;52653;50.080;21.992;2023-07-13T03:32:40;11.90;;;10.40;;
65871;SDS011;52653;50.080;21.992;2023-07-13T03:35:33;12.90;;;11.20;;
65871;SDS011;52653;50.080;21.992;2023-07-13T03:38:26;13.00;;;10.60;;
65871;SDS011;52653;50.080;21.992;2023-07-13T03:41:19;13.00;;;10.60;;
65871;SDS011;52653;50.080;21.992;2023-07-13T03:44:13;14.90;;;11.30;;
65871;SDS011;52653;50.080;21.992;2023-07-13T03:47:06;13.90;;;11.60;;
65871;SDS011;52653;50.080;21.992;2023-07-13T03:49:59;14.10;;;11.70;;
65871;SDS011;52653;50.080;21.992;2023-07-13T03:52:52;13.30;;;11.70;;
65871;SDS011;52653;50.080;21.992;2023-07-13T03:55:45;13.00;;;11.70;;
65871;SDS011;52653;50.080;21.992;2023-07-13T03:58:39;13.50;;;11.70;;
65871;SDS011;52653;50.080;21.992;2023-07-13T04:01:35;14.20;;;12.00;;
65871;SDS011;52653;50.080;21.992;2023-07-13T04:04:29;16.60;;;12.30;;
65871;SDS011;52653;50.080;21.992;2023-07-13T04:07:22;15.00;;;12.10;;
65871;SDS011;52653;50.080;21.992;2023-07-13T04:10:13;14.00;;;12.40;;
65871;SDS011;52653;50.080;21.992;2023-07-13T04:13:06;13.70;;;12.30;;
65871;SDS011;52653;50.080;21.992;2023-07-13T04:15:52;15.40;;;12.50;;
65871;SDS011;52653;50.080;21.992;2023-07-13T04:18:46;15.70;;;12.50;;
65871;SDS011;52653;50.080;21.992;2023-07-13T04:21:39;14.40;;;12.90;;
65871;SDS011;52653;50.080;21.992;2023-07-13T04:24:32;15.60;;;13.90;;
65871;SDS011;52653;50.080;21.992;2023-07-13T04:27:25;15.50;;;13.90;;
65871;SDS011;52653;50.080;21.992;2023-07-13T04:30:18;16.20;;;14.40;;
65871;SDS011;52653;50.080;21.992;2023-07-13T04:33:11;24.70;;;16.60;;
65871;SDS011;52653;50.080;21.992;2023-07-13T04:35:59;37.50;;;26.50;;
65871;SDS011;52653;50.080;21.992;2023-07-13T04:38:54;39.80;;;29.50;;
65871;SDS011;52653;50.080;21.992;2023-07-13T04:41:47;42.80;;;32.30;;
65871;SDS011;52653;50.080;21.992;2023-07-13T04:44:39;37.60;;;31.10;;
65871;SDS011;52653;50.080;21.992;2023-07-13T04:47:32;26.80;;;22.60;;
65871;SDS011;52653;50.080;21.992;2023-07-13T04:50:25;20.10;;;16.70;;
65871;SDS011;52653;50.080;21.992;2023-07-13T04:53:16;14.00;;;12.50;;
65871;SDS011;52653;50.080;21.992;2023-07-13T04:56:02;13.70;;;12.10;;
65871;SDS011;52653;50.080;21.992;2023-07-13T04:58:55;14.90;;;12.00;;
65871;SDS011;52653;50.080;21.992;2023-07-13T05:01:48;12.40;;;10.30;;
65871;SDS011;52653;50.080;21.992;2023-07-13T05:04:41;11.80;;;10.50;;
65871;SDS011;52653;50.080;21.992;2023-07-13T05:07:29;11.80;;;10.60;;
65871;SDS011;52653;50.080;21.992;2023-07-13T05:10:31;11.80;;;10.60;;
65871;SDS011;52653;50.080;21.992;2023-07-13T05:13:24;12.60;;;11.20;;
65871;SDS011;52653;50.080;21.992;2023-07-13T05:16:11;12.30;;;10.70;;
65871;SDS011;52653;50.080;21.992;2023-07-13T05:19:04;11.90;;;9.90;;
65871;SDS011;52653;50.080;21.992;2023-07-13T05:21:57;11.50;;;10.30;;
65871;SDS011;52653;50.080;21.992;2023-07-13T05:24:52;11.30;;;9.20;;
65871;SDS011;52653;50.080;21.992;2023-07-13T05:27:43;10.60;;;9.30;;
65871;SDS011;52653;50.080;21.992;2023-07-13T05:30:37;12.30;;;9.60;;
65871;SDS011;52653;50.080;21.992;2023-07-13T05:33:30;11.00;;;8.90;;
65871;SDS011;52653;50.080;21.992;2023-07-13T05:36:22;11.70;;;9.50;;
65871;SDS011;52653;50.080;21.992;2023-07-13T05:39:15;10.30;;;9.10;;
65871;SDS011;52653;50.080;21.992;2023-07-13T05:42:09;10.20;;;9.00;;
65871;SDS011;52653;50.080;21.992;2023-07-13T05:45:01;11.70;;;9.60;;
65871;SDS011;52653;50.080;21.992;2023-07-13T05:47:48;11.30;;;9.40;;
65871;SDS011;52653;50.080;21.992;2023-07-13T05:50:43;11.70;;;9.30;;
65871;SDS011;52653;50.080;21.992;2023-07-13T05:53:35;12.60;;;9.60;;
65871;SDS011;52653;50.080;21.992;2023-07-13T05:56:28;11.10;;;9.50;;
65871;SDS011;52653;50.080;21.992;2023-07-13T05:59:21;12.10;;;9.20;;
65871;SDS011;52653;50.080;21.992;2023-07-13T06:02:04;10.80;;;9.10;;
65871;SDS011;52653;50.080;21.992;2023-07-13T06:05:00;10.70;;;9.60;;
65871;SDS011;52653;50.080;21.992;2023-07-13T06:07:36;10.70;;;9.00;;
65871;SDS011;52653;50.080;21.992;2023-07-13T06:10:29;10.50;;;9.10;;
65871;SDS011;52653;50.080;21.992;2023-07-13T06:13:22;11.00;;;9.50;;
65871;SDS011;52653;50.080;21.992;2023-07-13T06:16:16;12.20;;;9.40;;
65871;SDS011;52653;50.080;21.992;2023-07-13T06:19:03;11.90;;;9.80;;
65871;SDS011;52653;50.080;21.992;2023-07-13T06:21:55;11.60;;;10.40;;
65871;SDS011;52653;50.080;21.992;2023-07-13T06:24:49;11.30;;;9.30;;
65871;SDS011;52653;50.080;21.992;2023-07-13T06:27:44;10.60;;;9.50;;
65871;SDS011;52653;50.080;21.992;2023-07-13T06:30:39;10.70;;;9.60;;
65871;SDS011;52653;50.080;21.992;2023-07-13T06:33:33;10.70;;;9.40;;
65871;SDS011;52653;50.080;21.992;2023-07-13T06:36:20;10.90;;;9.60;;
65871;SDS011;52653;50.080;21.992;2023-07-13T06:39:14;10.30;;;8.50;;
65871;SDS011;52653;50.080;21.992;2023-07-13T06:42:07;10.90;;;8.60;;
65871;SDS011;52653;50.080;21.992;2023-07-13T06:45:04;10.60;;;8.60;;
65871;SDS011;52653;50.080;21.992;2023-07-13T06:47:58;12.00;;;8.60;;
65871;SDS011;52653;50.080;21.992;2023-07-13T06:50:44;11.00;;;9.90;;
65871;SDS011;52653;50.080;21.992;2023-07-13T06:53:39;10.50;;;9.20;;
65871;SDS011;52653;50.080;21.992;2023-07-13T06:56:24;11.20;;;9.60;;
65871;SDS011;52653;50.080;21.992;2023-07-13T06:59:07;12.30;;;9.70;;
65871;SDS011;52653;50.080;21.992;2023-07-13T07:02:00;10.50;;;9.50;;
65871;SDS011;52653;50.080;21.992;2023-07-13T07:04:53;9.80;;;8.80;;
65871;SDS011;52653;50.080;21.992;2023-07-13T07:07:46;12.40;;;9.20;;
65871;SDS011;52653;50.080;21.992;2023-07-13T07:10:40;12.40;;;8.90;;
65871;SDS011;52653;50.080;21.992;2023-07-13T07:13:31;9.70;;;8.70;;
65871;SDS011;52653;50.080;21.992;2023-07-13T07:16:24;9.50;;;8.40;;
65871;SDS011;52653;50.080;21.992;2023-07-13T07:19:10;12.10;;;8.70;;
65871;SDS011;52653;50.080;21.992;2023-07-13T07:21:56;12.30;;;8.90;;
65871;SDS011;52653;50.080;21.992;2023-07-13T07:24:41;10.50;;;8.10;;
65871;SDS011;52653;50.080;21.992;2023-07-13T07:27:27;10.70;;;8.00;;
65871;SDS011;52653;50.080;21.992;2023-07-13T07:30:23;9.00;;;7.90;;
65871;SDS011;52653;50.080;21.992;2023-07-13T07:33:19;12.10;;;9.20;;
65871;SDS011;52653;50.080;21.992;2023-07-13T07:36:12;10.10;;;8.80;;
65871;SDS011;52653;50.080;21.992;2023-07-13T07:38:50;8.60;;;7.70;;
65871;SDS011;52653;50.080;21.992;2023-07-13T07:41:35;8.90;;;7.80;;
65871;SDS011;52653;50.080;21.992;2023-07-13T07:47:04;11.40;;;8.40;;
65871;SDS011;52653;50.080;21.992;2023-07-13T07:49:42;11.80;;;8.40;;
65871;SDS011;52653;50.080;21.992;2023-07-13T07:52:15;8.40;;;7.40;;
65871;SDS011;52653;50.080;21.992;2023-07-13T07:54:59;9.00;;;7.70;;
65871;SDS011;52653;50.080;21.992;2023-07-13T07:57:57;9.90;;;8.00;;
65871;SDS011;52653;50.080;21.992;2023-07-13T08:00:46;8.50;;;7.50;;
65871;SDS011;52653;50.080;21.992;2023-07-13T08:03:29;9.90;;;8.00;;
65871;SDS011;52653;50.080;21.992;2023-07-13T08:06:25;9.50;;;8.50;;
65871;SDS011;52653;50.080;21.992;2023-07-13T08:09:24;10.00;;;9.00;;
65871;SDS011;52653;50.080;21.992;2023-07-13T08:12:03;9.70;;;8.70;;
65871;SDS011;52653;50.080;21.992;2023-07-13T08:15:00;15.50;;;13.90;;
65871;SDS011;52653;50.080;21.992;2023-07-13T08:17:43;10.90;;;8.90;;
65871;SDS011;52653;50.080;21.992;2023-07-13T08:20:29;9.60;;;8.60;;
65871;SDS011;52653;50.080;21.992;2023-07-13T08:23:25;9.80;;;8.70;;
65871;SDS011;52653;50.080;21.992;2023-07-13T08:26:21;9.70;;;8.50;;
65871;SDS011;52653;50.080;21.992;2023-07-13T08:29:07;9.40;;;8.40;;
65871;SDS011;52653;50.080;21.992;2023-07-13T08:31:48;9.90;;;8.70;;
65871;SDS011;52653;50.080;21.992;2023-07-13T08:34:40;10.90;;;8.40;;
65871;SDS011;52653;50.080;21.992;2023-07-13T08:37:32;9.70;;;8.60;;
65871;SDS011;52653;50.080;21.992;2023-07-13T08:40:25;9.50;;;8.60;;
65871;SDS011;52653;50.080;21.992;2023-07-13T08:43:20;8.60;;;7.60;;
65871;SDS011;52653;50.080;21.992;2023-07-13T08:46:05;9.90;;;8.20;;
65871;SDS011;52653;50.080;21.992;2023-07-13T08:48:47;10.40;;;8.20;;
65871;SDS011;52653;50.080;21.992;2023-07-13T08:51:43;10.20;;;7.20;;
65871;SDS011;52653;50.080;21.992;2023-07-13T08:54:20;9.80;;;7.80;;
65871;SDS011;52653;50.080;21.992;2023-07-13T08:57:12;8.40;;;6.90;;
65871;SDS011;52653;50.080;21.992;2023-07-13T08:59:58;9.10;;;8.00;;
65871;SDS011;52653;50.080;21.992;2023-07-13T09:02:38;8.70;;;7.20;;
65871;SDS011;52653;50.080;21.992;2023-07-13T09:08:12;7.70;;;6.80;;
65871;SDS011;52653;50.080;21.992;2023-07-13T09:11:23;7.40;;;6.20;;
65871;SDS011;52653;50.080;21.992;2023-07-13T09:14:30;8.40;;;6.70;;
65871;SDS011;52653;50.080;21.992;2023-07-13T09:17:31;9.50;;;6.70;;
65871;SDS011;52653;50.080;21.992;2023-07-13T09:20:28;7.20;;;6.00;;
65871;SDS011;52653;50.080;21.992;2023-07-13T09:23:27;8.90;;;6.30;;
65871;SDS011;52653;50.080;21.992;2023-07-13T09:26:21;9.00;;;5.90;;
65871;SDS011;52653;50.080;21.992;2023-07-13T09:29:17;6.80;;;5.90;;
65871;SDS011;52653;50.080;21.992;2023-07-13T09:32:15;7.70;;;5.30;;
65871;SDS011;52653;50.080;21.992;2023-07-13T09:35:12;7.70;;;5.80;;
65871;SDS011;52653;50.080;21.992;2023-07-13T09:38:10;7.70;;;5.80;;
65871;SDS011;52653;50.080;21.992;2023-07-13T09:41:08;7.50;;;6.00;;
65871;SDS011;52653;50.080;21.992;2023-07-13T09:44:11;7.70;;;5.50;;
65871;SDS011;52653;50.080;21.992;2023-07-13T09:46:53;10.30;;;6.30;;
65871;SDS011;52653;50.080;21.992;2023-07-13T09:49:47;8.80;;;6.70;;
65871;SDS011;52653;50.080;21.992;2023-07-13T09:52:49;7.60;;;6.70;;
65871;SDS011;52653;50.080;21.992;2023-07-13T09:55:46;8.40;;;6.90;;
65871;SDS011;52653;50.080;21.992;2023-07-13T09:58:35;8.90;;;6.90;;
65871;SDS011;52653;50.080;21.992;2023-07-13T10:01:33;7.60;;;6.50;;
65871;SDS011;52653;50.080;21.992;2023-07-13T10:04:29;8.50;;;6.50;;
65871;SDS011;52653;50.080;21.992;2023-07-13T10:07:08;7.00;;;6.20;;
65871;SDS011;52653;50.080;21.992;2023-07-13T10:10:18;8.60;;;6.50;;
65871;SDS011;52653;50.080;21.992;2023-07-13T10:12:55;7.30;;;6.60;;
65871;SDS011;52653;50.080;21.992;2023-07-13T10:15:48;7.10;;;6.20;;
65871;SDS011;52653;50.080;21.992;2023-07-13T10:21:15;8.00;;;5.90;;
65871;SDS011;52653;50.080;21.992;2023-07-13T10:24:03;7.90;;;6.00;;
65871;SDS011;52653;50.080;21.992;2023-07-13T10:26:55;7.70;;;6.70;;
65871;SDS011;52653;50.080;21.992;2023-07-13T10:29:52;8.40;;;6.50;;
65871;SDS011;52653;50.080;21.992;2023-07-13T10:32:45;8.20;;;6.90;;
65871;SDS011;52653;50.080;21.992;2023-07-13T10:35:29;7.40;;;6.70;;
65871;SDS011;52653;50.080;21.992;2023-07-13T10:38:09;9.90;;;8.50;;
65871;SDS011;52653;50.080;21.992;2023-07-13T10:40:51;8.40;;;6.70;;
65871;SDS011;52653;50.080;21.992;2023-07-13T10:43:31;8.70;;;6.40;;
65871;SDS011;52653;50.080;21.992;2023-07-13T10:46:28;7.90;;;6.50;;
65871;SDS011;52653;50.080;21.992;2023-07-13T10:49:14;7.30;;;6.50;;
65871;SDS011;52653;50.080;21.992;2023-07-13T10:51:52;8.20;;;5.80;;
65871;SDS011;52653;50.080;21.992;2023-07-13T10:54:32;7.80;;;6.00;;
65871;SDS011;52653;50.080;21.992;2023-07-13T10:57:26;7.50;;;6.10;;
65871;SDS011;52653;50.080;21.992;2023-07-13T11:00:16;8.40;;;6.20;;
65871;SDS011;52653;50.080;21.992;2023-07-13T11:02:57;7.20;;;6.10;;
65871;SDS011;52653;50.080;21.992;2023-07-13T11:06:04;7.10;;;5.90;;
65871;SDS011;52653;50.080;21.992;2023-07-13T11:09:19;7.30;;;5.70;;
65871;SDS011;52653;50.080;21.992;2023-07-13T11:15:44;7.90;;;6.00;;
65871;SDS011;52653;50.080;21.992;2023-07-13T11:18:30;8.00;;;6.00;;
65871;SDS011;52653;50.080;21.992;2023-07-13T11:21:25;7.90;;;6.40;;
65871;SDS011;52653;50.080;21.992;2023-07-13T11:24:21;8.60;;;6.60;;
65871;SDS011;52653;50.080;21.992;2023-07-13T11:27:09;7.10;;;6.30;;
65871;SDS011;52653;50.080;21.992;2023-07-13T11:30:31;6.80;;;6.00;;
65871;SDS011;52653;50.080;21.992;2023-07-13T11:33:20;7.60;;;6.50;;
65871;SDS011;52653;50.080;21.992;2023-07-13T11:36:12;7.70;;;6.60;;
65871;SDS011;52653;50.080;21.992;2023-07-13T11:38:59;7.60;;;6.30;;
65871;SDS011;52653;50.080;21.992;2023-07-13T11:41:43;7.50;;;6.10;;
65871;SDS011;52653;50.080;21.992;2023-07-13T11:44:32;9.10;;;6.40;;
65871;SDS011;52653;50.080;21.992;2023-07-13T11:47:11;9.70;;;6.70;;
65871;SDS011;52653;50.080;21.992;2023-07-13T11:49:55;9.90;;;6.40;;
65871;SDS011;52653;50.080;21.992;2023-07-13T11:52:32;8.20;;;6.40;;
65871;SDS011;52653;50.080;21.992;2023-07-13T11:55:13;9.30;;;6.50;;
65871;SDS011;52653;50.080;21.992;2023-07-13T11:58:00;7.80;;;6.40;;
65871;SDS011;52653;50.080;21.992;2023-07-13T12:00:36;8.60;;;6.50;;
65871;SDS011;52653;50.080;21.992;2023-07-13T12:03:22;8.20;;;7.30;;
65871;SDS011;52653;50.080;21.992;2023-07-13T12:06:23;10.10;;;8.30;;
65871;SDS011;52653;50.080;21.992;2023-07-13T12:09:14;10.20;;;8.20;;
65871;SDS011;52653;50.080;21.992;2023-07-13T12:11:50;10.60;;;8.80;;
65871;SDS011;52653;50.080;21.992;2023-07-13T12:14:26;9.90;;;8.80;;
65871;SDS011;52653;50.080;21.992;2023-07-13T12:17:10;16.00;;;11.10;;
65871;SDS011;52653;50.080;21.992;2023-07-13T12:19:58;16.60;;;10.40;;
65871;SDS011;52653;50.080;21.992;2023-07-13T12:22:38;12.00;;;9.30;;
65871;SDS011;52653;50.080;21.992;2023-07-13T12:25:36;10.80;;;8.40;;
65871;SDS011;52653;50.080;21.992;2023-07-13T12:28:32;10.10;;;6.60;;
65871;SDS011;52653;50.080;21.992;2023-07-13T12:31:23;8.30;;;7.00;;
65871;SDS011;52653;50.080;21.992;2023-07-13T12:34:13;9.20;;;6.90;;
65871;SDS011;52653;50.080;21.992;2023-07-13T12:36:52;8.70;;;6.30;;
65871;SDS011;52653;50.080;21.992;2023-07-13T12:39:32;8.10;;;6.50;;
65871;SDS011;52653;50.080;21.992;2023-07-13T12:42:21;8.30;;;6.30;;
65871;SDS011;52653;50.080;21.992;2023-07-13T12:44:58;9.10;;;7.10;;
65871;SDS011;52653;50.080;21.992;2023-07-13T12:47:54;8.90;;;6.70;;
65871;SDS011;52653;50.080;21.992;2023-07-13T12:50:34;8.90;;;7.10;;
65871;SDS011;52653;50.080;21.992;2023-07-13T12:53:17;9.30;;;6.80;;
65871;SDS011;52653;50.080;21.992;2023-07-13T12:55:56;7.70;;;6.20;;
65871;SDS011;52653;50.080;21.992;2023-07-13T12:58:46;8.30;;;6.30;;
65871;SDS011;52653;50.080;21.992;2023-07-13T13:01:34;9.10;;;7.00;;
65871;SDS011;52653;50.080;21.992;2023-07-13T13:04:11;8.60;;;7.00;;
65871;SDS011;52653;50.080;21.992;2023-07-13T13:06:44;10.50;;;8.00;;
65871;SDS011;52653;50.080;21.992;2023-07-13T13:09:31;9.50;;;7.10;;
65871;SDS011;52653;50.080;21.992;2023-07-13T13:12:16;9.60;;;7.80;;
65871;SDS011;52653;50.080;21.992;2023-07-13T13:14:49;8.50;;;7.10;;
65871;SDS011;52653;50.080;21.992;2023-07-13T13:17:42;8.40;;;6.40;;
65871;SDS011;52653;50.080;21.992;2023-07-13T13:20:26;7.90;;;6.10;;
65871;SDS011;52653;50.080;21.992;2023-07-13T13:23:01;8.90;;;6.10;;
65871;SDS011;52653;50.080;21.992;2023-07-13T13:25:35;7.30;;;5.10;;
65871;SDS011;52653;50.080;21.992;2023-07-13T13:28:14;6.70;;;4.80;;
65871;SDS011;52653;50.080;21.992;2023-07-13T13:30:49;7.70;;;4.50;;
65871;SDS011;52653;50.080;21.992;2023-07-13T13:33:43;6.20;;;3.80;;
65871;SDS011;52653;50.080;21.992;2023-07-13T13:36:21;8.50;;;4.20;;
65871;SDS011;52653;50.080;21.992;2023-07-13T13:39:20;6.50;;;3.70;;
65871;SDS011;52653;50.080;21.992;2023-07-13T13:42:09;6.40;;;3.90;;
65871;SDS011;52653;50.080;21.992;2023-07-13T13:44:53;6.00;;;2.90;;
65871;SDS011;52653;50.080;21.992;2023-07-13T13:47:39;6.30;;;3.10;;
65871;SDS011;52653;50.080;21.992;2023-07-13T13:50:24;6.20;;;3.40;;
65871;SDS011;52653;50.080;21.992;2023-07-13T13:53:19;6.40;;;2.90;;
65871;SDS011;52653;50.080;21.992;2023-07-13T13:56:13;4.70;;;2.80;;
65871;SDS011;52653;50.080;21.992;2023-07-13T13:59:00;6.00;;;2.40;;
65871;SDS011;52653;50.080;21.992;2023-07-13T14:01:54;4.40;;;2.50;;
65871;SDS011;52653;50.080;21.992;2023-07-13T14:04:49;4.40;;;2.50;;
65871;SDS011;52653;50.080;21.992;2023-07-13T14:07:46;4.40;;;2.40;;
65871;SDS011;52653;50.080;21.992;2023-07-13T14:10:40;3.50;;;2.20;;
65871;SDS011;52653;50.080;21.992;2023-07-13T14:13:24;3.50;;;2.00;;
65871;SDS011;52653;50.080;21.992;2023-07-13T14:16:26;5.20;;;1.90;;
65871;SDS011;52653;50.080;21.992;2023-07-13T14:19:22;5.40;;;2.50;;
65871;SDS011;52653;50.080;21.992;2023-07-13T14:22:09;6.30;;;2.40;;
65871;SDS011;52653;50.080;21.992;2023-07-13T14:25:01;4.60;;;2.30;;
65871;SDS011;52653;50.080;21.992;2023-07-13T14:27:56;3.30;;;2.00;;
65871;SDS011;52653;50.080;21.992;2023-07-13T14:30:36;4.50;;;2.10;;
65871;SDS011;52653;50.080;21.992;2023-07-13T14:33:14;4.50;;;1.80;;
65871;SDS011;52653;50.080;21.992;2023-07-13T14:36:13;5.10;;;2.10;;
65871;SDS011;52653;50.080;21.992;2023-07-13T14:39:11;6.60;;;2.40;;
65871;SDS011;52653;50.080;21.992;2023-07-13T14:41:59;3.90;;;2.50;;
65871;SDS011;52653;50.080;21.992;2023-07-13T14:44:38;3.80;;;2.30;;
65871;SDS011;52653;50.080;21.992;2023-07-13T14:47:22;5.10;;;2.40;;
65871;SDS011;52653;50.080;21.992;2023-07-13T14:50:16;5.60;;;2.20;;
65871;SDS011;52653;50.080;21.992;2023-07-13T14:52:50;3.50;;;2.00;;
65871;SDS011;52653;50.080;21.992;2023-07-13T14:55:43;4.00;;;2.30;;
65871;SDS011;52653;50.080;21.992;2023-07-13T14:58:37;3.00;;;1.50;;
65871;SDS011;52653;50.080;21.992;2023-07-13T15:01:31;3.50;;;1.80;;
65871;SDS011;52653;50.080;21.992;2023-07-13T15:04:24;4.70;;;2.20;;
65871;SDS011;52653;50.080;21.992;2023-07-13T15:07:03;3.20;;;2.00;;
65871;SDS011;52653;50.080;21.992;2023-07-13T15:09:56;3.20;;;1.80;;
65871;SDS011;52653;50.080;21.992;2023-07-13T15:12:50;3.30;;;1.90;;
65871;SDS011;52653;50.080;21.992;2023-07-13T15:15:45;4.90;;;2.10;;
65871;SDS011;52653;50.080;21.992;2023-07-13T15:18:39;3.10;;;2.10;;
65871;SDS011;52653;50.080;21.992;2023-07-13T15:21:32;5.50;;;2.20;;
65871;SDS011;52653;50.080;21.992;2023-07-13T15:24:20;3.90;;;2.10;;
65871;SDS011;52653;50.080;21.992;2023-07-13T15:27:13;4.10;;;2.20;;
65871;SDS011;52653;50.080;21.992;2023-07-13T15:30:08;3.50;;;2.10;;
65871;SDS011;52653;50.080;21.992;2023-07-13T15:33:11;3.50;;;2.20;;
65871;SDS011;52653;50.080;21.992;2023-07-13T15:36:06;4.20;;;2.20;;
65871;SDS011;52653;50.080;21.992;2023-07-13T15:38:45;3.20;;;1.90;;
65871;SDS011;52653;50.080;21.992;2023-07-13T15:41:40;3.40;;;1.90;;
65871;SDS011;52653;50.080;21.992;2023-07-13T15:44:34;4.50;;;2.30;;
65871;SDS011;52653;50.080;21.992;2023-07-13T15:47:14;3.90;;;1.80;;
65871;SDS011;52653;50.080;21.992;2023-07-13T15:50:10;3.20;;;1.80;;
65871;SDS011;52653;50.080;21.992;2023-07-13T15:52:47;2.70;;;1.70;;
65871;SDS011;52653;50.080;21.992;2023-07-13T15:55:38;4.30;;;1.70;;
65871;SDS011;52653;50.080;21.992;2023-07-13T15:58:22;2.80;;;1.80;;
65871;SDS011;52653;50.080;21.992;2023-07-13T16:01:16;3.80;;;1.80;;
65871;SDS011;52653;50.080;21.992;2023-07-13T16:03:53;2.80;;;1.60;;
65871;SDS011;52653;50.080;21.992;2023-07-13T16:06:47;2.80;;;1.70;;
65871;SDS011;52653;50.080;21.992;2023-07-13T16:09:33;3.10;;;1.60;;
65871;SDS011;52653;50.080;21.992;2023-07-13T16:12:26;3.10;;;1.60;;
65871;SDS011;52653;50.080;21.992;2023-07-13T16:15:22;3.00;;;1.80;;
65871;SDS011;52653;50.080;21.992;2023-07-13T16:18:08;3.20;;;2.20;;
65871;SDS011;52653;50.080;21.992;2023-07-13T16:20:54;3.50;;;2.20;;
65871;SDS011;52653;50.080;21.992;2023-07-13T16:23:49;3.50;;;1.90;;
65871;SDS011;52653;50.080;21.992;2023-07-13T16:26:36;5.10;;;2.30;;
65871;SDS011;52653;50.080;21.992;2023-07-13T16:29:19;3.80;;;1.90;;
65871;SDS011;52653;50.080;21.992;2023-07-13T16:32:14;3.60;;;2.30;;
65871;SDS011;52653;50.080;21.992;2023-07-13T16:34:53;4.90;;;2.10;;
65871;SDS011;52653;50.080;21.992;2023-07-13T16:37:30;4.10;;;2.20;;
65871;SDS011;52653;50.080;21.992;2023-07-13T16:40:21;3.70;;;2.30;;
65871;SDS011;52653;50.080;21.992;2023-07-13T16:43:08;4.60;;;2.70;;
65871;SDS011;52653;50.080;21.992;2023-07-13T16:45:47;5.00;;;3.00;;
65871;SDS011;52653;50.080;21.992;2023-07-13T16:48:32;4.60;;;3.00;;